Time;durP1;ratioP1;P1;durP2;ratioP2;P2;SDS_P1;SDS_P2;PMS_P1;PMS_P2;Temp;Humidity;BMP_temperature;BMP_pressure;BME280_temperature;BME280_humidity;BME280_pressure;Samples;Min_cycle;Max_cycle;Signal;HPM_P1;HPM_P2
2023/05/28 00:00:23;;;;;;;10.83;6.83;;;;;;;;;;5100853;28;20474;-61
2023/05/28 00:02:50;;;;;;;11.30;7.67;;;;;;;;;;5105782;28;20641;-61
2023/05/28 00:05:17;;;;;;;8.27;6.70;;;;;;;;;;5103281;28;20458;-60
2023/05/28 00:07:44;;;;;;;12.03;7.50;;;;;;;;;;5107139;28;20451;-60
2023/05/28 00:10:11;;;;;;;9.33;7.00;;;;;;;;;;5100792;28;20482;-61
2023/05/28 00:12:37;;;;;;;9.30;7.00;;;;;;;;;;5100810;28;20471;-61
2023/05/28 00:15:04;;;;;;;7.80;6.13;;;;;;;;;;5100657;28;20485;-60
2023/05/28 00:17:30;;;;;;;10.07;6.50;;;;;;;;;;5100474;28;20502;-61
2023/05/28 00:19:56;;;;;;;11.60;7.10;;;;;;;;;;5100114;28;20981;-61
2023/05/28 00:22:25;;;;;;;9.40;6.63;;;;;;;;;;5100557;28;20554;-61
2023/05/28 00:24:51;;;;;;;13.50;7.50;;;;;;;;;;5099774;28;20447;-61
2023/05/28 00:27:17;;;;;;;9.67;6.17;;;;;;;;;;5100042;28;20617;-61
2023/05/28 00:29:44;;;;;;;9.63;7.03;;;;;;;;;;5100443;28;21119;-61
2023/05/28 00:32:10;;;;;;;9.87;6.60;;;;;;;;;;5101836;28;20478;-61
2023/05/28 00:34:37;;;;;;;10.23;7.27;;;;;;;;;;5099914;28;20466;-61
2023/05/28 00:37:03;;;;;;;11.40;7.83;;;;;;;;;;5107182;28;20474;-61
2023/05/28 00:39:31;;;;;;;9.60;6.70;;;;;;;;;;5102299;28;20558;-61
2023/05/28 00:42:01;;;;;;;8.20;6.53;;;;;;;;;;5099420;28;20471;-63
2023/05/28 00:44:28;;;;;;;10.20;7.20;;;;;;;;;;5100555;28;20466;-61
2023/05/28 00:46:54;;;;;;;10.30;6.03;;;;;;;;;;5099873;28;20550;-61
2023/05/28 00:49:21;;;;;;;11.27;7.30;;;;;;;;;;5100361;28;20601;-61
2023/05/28 00:51:48;;;;;;;8.90;6.23;;;;;;;;;;5096419;28;20544;-62
2023/05/28 00:54:14;;;;;;;13.20;6.10;;;;;;;;;;5099944;28;20483;-63
2023/05/28 00:56:43;;;;;;;10.57;6.37;;;;;;;;;;5101738;28;20554;-63
2023/05/28 00:59:10;;;;;;;10.03;7.30;;;;;;;;;;5100256;28;20988;-62
2023/05/28 01:01:37;;;;;;;9.83;6.80;;;;;;;;;;5105766;28;20474;-62
2023/05/28 01:04:03;;;;;;;9.27;6.40;;;;;;;;;;5100512;28;20483;-62
2023/05/28 01:06:30;;;;;;;8.90;5.80;;;;;;;;;;5099875;28;20478;-63
2023/05/28 01:08:57;;;;;;;11.27;6.67;;;;;;;;;;5101035;28;20502;-62
2023/05/28 01:11:24;;;;;;;11.33;6.83;;;;;;;;;;5099785;28;20586;-62
2023/05/28 01:13:52;;;;;;;11.27;7.80;;;;;;;;;;5101057;28;20489;-62
2023/05/28 01:16:18;;;;;;;9.33;6.10;;;;;;;;;;5105025;28;20937;-62
2023/05/28 01:18:45;;;;;;;10.97;7.10;;;;;;;;;;5099949;28;20482;-62
2023/05/28 01:21:11;;;;;;;12.37;6.30;;;;;;;;;;5099698;28;20558;-62
2023/05/28 01:23:41;;;;;;;8.93;6.80;;;;;;;;;;5099924;28;20486;-63
2023/05/28 01:26:08;;;;;;;10.93;5.70;;;;;;;;;;5092008;28;20507;-62
2023/05/28 01:28:34;;;;;;;14.03;7.17;;;;;;;;;;5100102;28;20482;-62
2023/05/28 01:31:00;;;;;;;8.47;6.47;;;;;;;;;;5099284;28;20540;-61
2023/05/28 01:33:27;;;;;;;10.00;6.30;;;;;;;;;;5103698;28;20682;-61
2023/05/28 01:35:56;;;;;;;13.57;7.30;;;;;;;;;;5102587;28;20899;-62
2023/05/28 01:38:23;;;;;;;10.70;6.33;;;;;;;;;;5104313;28;20510;-61
2023/05/28 01:40:51;;;;;;;8.47;7.00;;;;;;;;;;5098758;28;20558;-61
2023/05/28 01:43:18;;;;;;;8.20;5.80;;;;;;;;;;5099747;28;20486;-62
2023/05/28 01:45:44;;;;;;;7.80;6.10;;;;;;;;;;5102397;28;20540;-62
2023/05/28 01:48:11;;;;;;;9.50;7.00;;;;;;;;;;5099939;28;20534;-62
2023/05/28 01:50:39;;;;;;;10.23;6.50;;;;;;;;;;5104803;28;20561;-61
2023/05/28 01:53:06;;;;;;;10.53;6.73;;;;;;;;;;5099839;28;20493;-62
2023/05/28 01:55:32;;;;;;;10.07;6.70;;;;;;;;;;5097689;28;20474;-61
2023/05/28 01:58:00;;;;;;;9.50;6.17;;;;;;;;;;5100209;28;20447;-62
2023/05/28 02:00:26;;;;;;;8.30;5.90;;;;;;;;;;5099798;28;20538;-62
2023/05/28 02:02:53;;;;;;;9.87;6.40;;;;;;;;;;5100348;28;20458;-62
2023/05/28 02:05:19;;;;;;;8.30;6.40;;;;;;;;;;5107346;28;20480;-62
2023/05/28 02:07:46;;;;;;;8.23;6.47;;;;;;;;;;5103949;28;20457;-62
2023/05/28 02:10:12;;;;;;;15.57;7.20;;;;;;;;;;5102281;28;20843;-61
2023/05/28 02:12:38;;;;;;;7.20;5.67;;;;;;;;;;5103380;28;20511;-63
2023/05/28 02:15:07;;;;;;;8.00;5.93;;;;;;;;;;5103419;28;20496;-62
2023/05/28 02:17:33;;;;;;;9.83;6.97;;;;;;;;;;5104641;28;20477;-63
2023/05/28 02:20:00;;;;;;;9.73;7.20;;;;;;;;;;5104730;28;20533;-63
2023/05/28 02:22:26;;;;;;;8.40;6.47;;;;;;;;;;5102512;28;20542;-63
2023/05/28 02:24:53;;;;;;;11.83;6.70;;;;;;;;;;5102684;28;20482;-62
2023/05/28 02:27:19;;;;;;;9.20;5.97;;;;;;;;;;5102239;28;20495;-62
2023/05/28 02:29:47;;;;;;;10.30;6.30;;;;;;;;;;5103047;28;20486;-62
2023/05/28 02:32:14;;;;;;;11.03;6.20;;;;;;;;;;5101806;28;20485;-61
2023/05/28 02:34:41;;;;;;;9.10;5.77;;;;;;;;;;5102020;28;20891;-61
2023/05/28 02:37:08;;;;;;;10.63;6.33;;;;;;;;;;5102033;28;20483;-61
2023/05/28 02:39:35;;;;;;;10.33;6.57;;;;;;;;;;5102742;28;20453;-61
2023/05/28 02:42:01;;;;;;;8.80;6.47;;;;;;;;;;5101448;28;20479;-61
2023/05/28 02:44:28;;;;;;;10.50;6.73;;;;;;;;;;5102162;28;20463;-61
2023/05/28 02:46:54;;;;;;;12.53;6.37;;;;;;;;;;5101651;28;20493;-61
2023/05/28 02:49:22;;;;;;;7.63;6.03;;;;;;;;;;5103488;28;20579;-61
2023/05/28 02:51:48;;;;;;;12.27;6.53;;;;;;;;;;5103511;28;20491;-62
2023/05/28 02:54:15;;;;;;;8.23;6.03;;;;;;;;;;5102454;28;20554;-61
2023/05/28 02:56:41;;;;;;;9.03;6.00;;;;;;;;;;5101713;28;20486;-62
2023/05/28 02:59:07;;;;;;;9.63;6.10;;;;;;;;;;5102461;28;20624;-61
2023/05/28 03:01:34;;;;;;;10.23;6.10;;;;;;;;;;5105461;28;20759;-62
2023/05/28 03:04:00;;;;;;;8.20;6.37;;;;;;;;;;5101906;28;20452;-62
2023/05/28 03:06:28;;;;;;;8.00;6.10;;;;;;;;;;5101129;28;20494;-61
2023/05/28 03:08:54;;;;;;;13.23;7.47;;;;;;;;;;5099580;28;20526;-62
2023/05/28 03:11:21;;;;;;;8.17;6.67;;;;;;;;;;5101318;28;20502;-62
2023/05/28 03:13:47;;;;;;;11.73;6.97;;;;;;;;;;5101748;28;20518;-62
2023/05/28 03:16:13;;;;;;;7.97;5.67;;;;;;;;;;5098490;28;20506;-61
2023/05/28 03:18:40;;;;;;;10.23;5.97;;;;;;;;;;5101957;28;20530;-62
2023/05/28 03:21:06;;;;;;;12.53;7.80;;;;;;;;;;5098618;28;20538;-62
2023/05/28 03:23:34;;;;;;;13.37;6.50;;;;;;;;;;5107720;28;20454;-62
2023/05/28 03:26:00;;;;;;;8.87;6.40;;;;;;;;;;5101223;28;20510;-63
2023/05/28 03:28:27;;;;;;;7.40;6.70;;;;;;;;;;5108230;28;20514;-62
2023/05/28 03:30:57;;;;;;;8.47;5.73;;;;;;;;;;5101989;28;20546;-63
2023/05/28 03:33:23;;;;;;;8.63;5.83;;;;;;;;;;5101413;28;20455;-62
2023/05/28 03:35:49;;;;;;;7.13;6.17;;;;;;;;;;5103779;28;20547;-62
2023/05/28 03:38:16;;;;;;;14.40;6.63;;;;;;;;;;5101580;28;20514;-62
2023/05/28 03:40:44;;;;;;;10.53;7.30;;;;;;;;;;5100438;28;20562;-62
2023/05/28 03:43:10;;;;;;;10.17;6.90;;;;;;;;;;5101060;28;20546;-62
2023/05/28 03:45:37;;;;;;;10.40;5.50;;;;;;;;;;5100532;28;20466;-62
2023/05/28 03:48:03;;;;;;;6.57;5.50;;;;;;;;;;5101575;28;20756;-62
2023/05/28 03:50:30;;;;;;;8.33;6.00;;;;;;;;;;5100182;28;20467;-63
2023/05/28 03:52:56;;;;;;;5.83;4.93;;;;;;;;;;5110562;28;21289;-63
2023/05/28 03:55:23;;;;;;;11.67;6.47;;;;;;;;;;5104006;28;20517;-62
2023/05/28 03:57:50;;;;;;;9.00;5.63;;;;;;;;;;5101224;28;20451;-59
2023/05/28 04:00:17;;;;;;;7.20;4.80;;;;;;;;;;5100676;28;20534;-61
2023/05/28 04:02:43;;;;;;;8.07;5.20;;;;;;;;;;5101324;28;20455;-61
2023/05/28 04:05:10;;;;;;;8.33;5.17;;;;;;;;;;5103075;28;20455;-62
2023/05/28 04:07:36;;;;;;;7.53;4.60;;;;;;;;;;5103943;28;20447;-62
2023/05/28 04:10:03;;;;;;;5.60;4.70;;;;;;;;;;5103451;28;20485;-62
2023/05/28 04:12:29;;;;;;;9.47;5.63;;;;;;;;;;5101711;28;20475;-62
2023/05/28 04:14:58;;;;;;;7.97;4.63;;;;;;;;;;5104860;28;20487;-62
2023/05/28 04:17:25;;;;;;;6.20;4.50;;;;;;;;;;5100995;28;20485;-62
2023/05/28 04:19:53;;;;;;;7.27;5.80;;;;;;;;;;5101178;28;20524;-62
2023/05/28 04:22:20;;;;;;;8.63;5.40;;;;;;;;;;5100403;28;20943;-62
2023/05/28 04:24:47;;;;;;;7.57;5.70;;;;;;;;;;5101072;28;20461;-62
2023/05/28 04:27:13;;;;;;;8.80;5.40;;;;;;;;;;5105968;28;20899;-62
2023/05/28 04:29:40;;;;;;;9.10;6.53;;;;;;;;;;5101472;28;20931;-62
2023/05/28 04:32:10;;;;;;;6.40;4.83;;;;;;;;;;5100466;28;20486;-62
2023/05/28 04:34:37;;;;;;;6.37;5.07;;;;;;;;;;5096992;28;20517;-62
2023/05/28 04:37:04;;;;;;;6.40;5.13;;;;;;;;;;5100165;28;20530;-62
2023/05/28 04:39:30;;;;;;;5.97;4.53;;;;;;;;;;5100632;28;21003;-62
2023/05/28 04:41:57;;;;;;;6.50;5.40;;;;;;;;;;5099818;28;20514;-62
2023/05/28 04:44:25;;;;;;;6.20;4.90;;;;;;;;;;5102120;28;20535;-62
2023/05/28 04:46:51;;;;;;;5.63;4.87;;;;;;;;;;5106286;28;20525;-62
2023/05/28 04:49:19;;;;;;;7.00;5.27;;;;;;;;;;5108347;28;20451;-62
2023/05/28 04:51:45;;;;;;;8.67;4.90;;;;;;;;;;5099539;28;20506;-61
2023/05/28 04:54:12;;;;;;;7.47;5.87;;;;;;;;;;5111577;28;20491;-62
2023/05/28 04:56:38;;;;;;;6.43;5.37;;;;;;;;;;5105348;28;20492;-62
2023/05/28 04:59:08;;;;;;;9.83;6.20;;;;;;;;;;5100632;28;20458;-61
2023/05/28 05:01:35;;;;;;;6.00;5.40;;;;;;;;;;5099963;28;20479;-62
2023/05/28 05:04:01;;;;;;;12.40;5.77;;;;;;;;;;5100625;28;20466;-62
2023/05/28 05:06:30;;;;;;;8.83;5.63;;;;;;;;;;5103343;28;20480;-62
2023/05/28 05:08:56;;;;;;;7.03;5.50;;;;;;;;;;5098396;28;20447;-62
2023/05/28 05:11:22;;;;;;;10.73;6.87;;;;;;;;;;5099042;28;20577;-62
2023/05/28 05:13:49;;;;;;;9.73;5.97;;;;;;;;;;5100506;28;20486;-62
2023/05/28 05:16:16;;;;;;;9.50;6.00;;;;;;;;;;5099363;28;20470;-62
2023/05/28 05:18:43;;;;;;;8.57;5.80;;;;;;;;;;5106165;28;20455;-62
2023/05/28 05:21:10;;;;;;;11.33;6.80;;;;;;;;;;5100136;28;20482;-62
2023/05/28 05:23:38;;;;;;;9.47;6.50;;;;;;;;;;5099024;28;20475;-61
2023/05/28 05:26:04;;;;;;;6.67;5.90;;;;;;;;;;5100317;28;20561;-62
2023/05/28 05:28:31;;;;;;;7.13;5.67;;;;;;;;;;5109423;28;20502;-62
2023/05/28 05:30:57;;;;;;;10.40;6.90;;;;;;;;;;5102049;28;20479;-63
2023/05/28 05:33:23;;;;;;;10.07;6.37;;;;;;;;;;5107280;28;20622;-61
2023/05/28 05:35:50;;;;;;;7.70;6.27;;;;;;;;;;5099382;28;20842;-62
2023/05/28 05:38:16;;;;;;;9.00;6.67;;;;;;;;;;5101391;28;20476;-61
2023/05/28 05:40:44;;;;;;;10.00;7.40;;;;;;;;;;5105016;28;20554;-62
2023/05/28 05:43:10;;;;;;;9.13;7.10;;;;;;;;;;5110492;28;20451;-64
2023/05/28 05:45:37;;;;;;;8.87;6.73;;;;;;;;;;5103612;28;20476;-64
2023/05/28 05:48:03;;;;;;;8.50;7.20;;;;;;;;;;5104134;28;20453;-61
2023/05/28 05:50:30;;;;;;;9.43;6.63;;;;;;;;;;5106244;28;20526;-62
2023/05/28 05:52:59;;;;;;;10.77;6.77;;;;;;;;;;5108734;28;20450;-64
2023/05/28 05:55:25;;;;;;;11.50;6.80;;;;;;;;;;5090151;28;20564;-62
2023/05/28 05:57:53;;;;;;;10.50;6.90;;;;;;;;;;5104076;28;20888;-62
2023/05/28 06:00:19;;;;;;;10.40;7.00;;;;;;;;;;5103371;28;20534;-63
2023/05/28 06:02:46;;;;;;;9.27;6.80;;;;;;;;;;5103844;28;20506;-63
2023/05/28 06:05:12;;;;;;;11.03;6.70;;;;;;;;;;5102827;28;20489;-62
2023/05/28 06:07:39;;;;;;;8.33;6.13;;;;;;;;;;5106305;28;20457;-62
2023/05/28 06:10:06;;;;;;;11.57;6.30;;;;;;;;;;5103637;28;20521;-64
2023/05/28 06:12:32;;;;;;;7.83;6.03;;;;;;;;;;5103271;28;20538;-70
2023/05/28 06:15:00;;;;;;;16.03;6.70;;;;;;;;;;5103277;28;20467;-68
2023/05/28 06:17:27;;;;;;;8.83;5.90;;;;;;;;;;5098894;28;20482;-63
2023/05/28 06:19:53;;;;;;;11.93;6.40;;;;;;;;;;5102711;28;20530;-62
2023/05/28 06:22:20;;;;;;;10.30;7.00;;;;;;;;;;5102496;28;20546;-64
2023/05/28 06:24:49;;;;;;;7.80;5.77;;;;;;;;;;5103674;28;20526;-64
2023/05/28 06:27:15;;;;;;;8.90;6.30;;;;;;;;;;5105441;28;20651;-63
2023/05/28 06:29:41;;;;;;;8.40;5.63;;;;;;;;;;5102531;28;20443;-64
2023/05/28 06:32:09;;;;;;;6.33;5.27;;;;;;;;;;5102215;28;20490;-64
2023/05/28 06:34:36;;;;;;;7.20;5.83;;;;;;;;;;5102912;28;20489;-64
2023/05/28 06:37:03;;;;;;;7.03;5.03;;;;;;;;;;5102614;28;20471;-63
2023/05/28 06:39:29;;;;;;;9.80;5.67;;;;;;;;;;5105790;28;20455;-64
2023/05/28 06:41:56;;;;;;;10.30;5.57;;;;;;;;;;5108349;28;20915;-64
2023/05/28 06:44:22;;;;;;;8.50;5.87;;;;;;;;;;5106504;28;20462;-65
2023/05/28 06:46:48;;;;;;;8.90;6.20;;;;;;;;;;5105690;28;20558;-65
2023/05/28 06:49:16;;;;;;;7.87;5.53;;;;;;;;;;5104347;28;20483;-64
2023/05/28 06:51:42;;;;;;;8.10;5.80;;;;;;;;;;5102036;28;20550;-65
2023/05/28 06:54:09;;;;;;;9.70;5.33;;;;;;;;;;5101375;28;20904;-63
2023/05/28 06:56:35;;;;;;;7.90;4.97;;;;;;;;;;5101693;28;20480;-65
2023/05/28 06:59:02;;;;;;;7.57;5.60;;;;;;;;;;5103158;28;20510;-64
2023/05/28 07:01:28;;;;;;;7.93;4.80;;;;;;;;;;5101694;28;20542;-65
2023/05/28 07:03:54;;;;;;;7.67;4.60;;;;;;;;;;5102257;28;20490;-64
2023/05/28 07:06:22;;;;;;;10.77;6.50;;;;;;;;;;5101304;28;20534;-64
2023/05/28 07:08:49;;;;;;;7.93;5.00;;;;;;;;;;5101803;28;20546;-66
2023/05/28 07:11:15;;;;;;;8.10;5.10;;;;;;;;;;5100809;28;20493;-64
2023/05/28 07:13:42;;;;;;;9.67;5.80;;;;;;;;;;5102376;28;20482;-63
2023/05/28 07:16:08;;;;;;;7.93;4.93;;;;;;;;;;5093992;28;20478;-62
2023/05/28 07:18:35;;;;;;;6.87;5.07;;;;;;;;;;5102182;28;20443;-64
2023/05/28 07:21:01;;;;;;;7.03;5.50;;;;;;;;;;5101123;28;20478;-63
2023/05/28 07:23:29;;;;;;;6.93;5.27;;;;;;;;;;5102959;28;20458;-63
2023/05/28 07:25:56;;;;;;;6.80;5.27;;;;;;;;;;5101621;28;20552;-63
2023/05/28 07:28:22;;;;;;;6.33;4.60;;;;;;;;;;5100230;28;20547;-64
2023/05/28 07:30:48;;;;;;;12.93;5.10;;;;;;;;;;5099223;28;20526;-64
2023/05/28 07:33:15;;;;;;;7.90;5.20;;;;;;;;;;5101509;28;20475;-62
2023/05/28 07:35:41;;;;;;;9.40;4.17;;;;;;;;;;5103618;28;20451;-63
2023/05/28 07:38:10;;;;;;;7.00;4.67;;;;;;;;;;5103874;28;20464;-64
2023/05/28 07:40:38;;;;;;;5.60;4.03;;;;;;;;;;5100788;28;20445;-65
2023/05/28 07:43:04;;;;;;;8.77;4.87;;;;;;;;;;5099729;28;20447;-63
2023/05/28 07:45:31;;;;;;;5.43;4.07;;;;;;;;;;5110190;28;20650;-63
2023/05/28 07:47:57;;;;;;;6.67;4.00;;;;;;;;;;5102014;28;21173;-66
2023/05/28 07:50:23;;;;;;;6.60;4.50;;;;;;;;;;5111536;28;20547;-64
2023/05/28 07:52:50;;;;;;;7.40;4.60;;;;;;;;;;5107069;28;20889;-63
2023/05/28 07:55:17;;;;;;;8.80;4.40;;;;;;;;;;5101407;28;20566;-62
2023/05/28 07:57:44;;;;;;;8.13;4.43;;;;;;;;;;5103141;28;20848;-65
2023/05/28 08:00:13;;;;;;;5.17;3.20;;;;;;;;;;5102277;28;20485;-64
2023/05/28 08:02:43;;;;;;;6.40;3.97;;;;;;;;;;5110068;28;20475;-64
2023/05/28 08:05:09;;;;;;;5.23;3.80;;;;;;;;;;5104416;28;20638;-63
2023/05/28 08:07:36;;;;;;;7.13;3.43;;;;;;;;;;5104080;28;20959;-62
2023/05/28 08:10:03;;;;;;;8.20;4.40;;;;;;;;;;5109819;28;20467;-63
2023/05/28 08:12:29;;;;;;;7.03;3.53;;;;;;;;;;5104605;28;20450;-61
2023/05/28 08:14:57;;;;;;;5.43;3.33;;;;;;;;;;5102719;28;20500;-64
2023/05/28 08:17:23;;;;;;;4.60;2.90;;;;;;;;;;5103395;28;20455;-63
2023/05/28 08:19:50;;;;;;;5.30;3.27;;;;;;;;;;5100604;28;20475;-64
2023/05/28 08:22:16;;;;;;;7.27;3.30;;;;;;;;;;5100063;28;20450;-62
2023/05/28 08:24:43;;;;;;;4.73;2.97;;;;;;;;;;5106445;28;20465;-63
2023/05/28 08:27:09;;;;;;;6.73;3.33;;;;;;;;;;5100811;28;20483;-63
2023/05/28 08:29:35;;;;;;;5.20;3.10;;;;;;;;;;5101439;28;20520;-62
2023/05/28 08:32:04;;;;;;;5.30;2.70;;;;;;;;;;5101601;28;20565;-62
2023/05/28 08:34:31;;;;;;;3.60;2.77;;;;;;;;;;5101388;28;20451;-63
2023/05/28 08:36:57;;;;;;;5.00;3.20;;;;;;;;;;5101532;28;20535;-64
2023/05/28 08:39:26;;;;;;;4.70;2.57;;;;;;;;;;5100213;28;20549;-64
2023/05/28 08:41:53;;;;;;;7.63;2.80;;;;;;;;;;5104736;28;20448;-63
2023/05/28 08:44:20;;;;;;;3.90;2.70;;;;;;;;;;5101856;28;20478;-64
2023/05/28 08:46:46;;;;;;;4.80;2.87;;;;;;;;;;5100222;28;20459;-64
2023/05/28 08:49:16;;;;;;;8.90;3.87;;;;;;;;;;5101325;28;20455;-62
2023/05/28 08:51:43;;;;;;;5.13;2.90;;;;;;;;;;5101528;28;20502;-62
2023/05/28 08:54:09;;;;;;;7.90;3.67;;;;;;;;;;5101931;28;20581;-63
2023/05/28 08:56:36;;;;;;;5.80;2.60;;;;;;;;;;5107360;28;20519;-63
2023/05/28 08:59:03;;;;;;;6.53;2.63;;;;;;;;;;5100225;28;20518;-63
2023/05/28 09:01:30;;;;;;;5.07;2.40;;;;;;;;;;5102451;28;20439;-63
2023/05/28 09:03:56;;;;;;;6.13;3.10;;;;;;;;;;5100552;28;20553;-63
2023/05/28 09:06:25;;;;;;;5.97;2.83;;;;;;;;;;5099474;28;20470;-62
2023/05/28 09:08:51;;;;;;;4.70;2.23;;;;;;;;;;5107117;28;20477;-62
2023/05/28 09:11:19;;;;;;;2.90;2.43;;;;;;;;;;5106598;28;20516;-64
2023/05/28 09:13:49;;;;;;;4.47;2.87;;;;;;;;;;5106547;28;20482;-62
2023/05/28 09:16:21;;;;;;;4.03;2.93;;;;;;;;;;5110284;28;20907;-64
2023/05/28 09:18:49;;;;;;;4.20;2.77;;;;;;;;;;5104261;28;20455;-62
2023/05/28 09:21:15;;;;;;;7.23;3.03;;;;;;;;;;5111288;28;20534;-61
2023/05/28 09:23:44;;;;;;;10.90;4.50;;;;;;;;;;5105829;28;20478;-62
2023/05/28 09:26:10;;;;;;;5.83;3.20;;;;;;;;;;5110785;28;20480;-61
2023/05/28 09:28:41;;;;;;;5.77;2.90;;;;;;;;;;5107552;28;20471;-61
2023/05/28 09:31:07;;;;;;;4.60;3.07;;;;;;;;;;5105470;28;20561;-61
2023/05/28 09:33:34;;;;;;;5.63;2.57;;;;;;;;;;5114780;28;20582;-62
2023/05/28 09:36:01;;;;;;;6.27;3.20;;;;;;;;;;5111915;28;20466;-61
2023/05/28 09:38:27;;;;;;;5.23;3.53;;;;;;;;;;5113009;28;20476;-61
2023/05/28 09:40:56;;;;;;;3.17;2.40;;;;;;;;;;5102194;28;20474;-61
2023/05/28 09:43:27;;;;;;;5.27;2.80;;;;;;;;;;5111548;28;20462;-60
2023/05/28 09:45:53;;;;;;;5.50;2.83;;;;;;;;;;5104289;28;20446;-61
2023/05/28 09:48:20;;;;;;;4.30;2.50;;;;;;;;;;5103500;28;20492;-61
2023/05/28 09:50:47;;;;;;;4.47;2.67;;;;;;;;;;5105454;28;20526;-61
2023/05/28 09:53:16;;;;;;;4.50;2.53;;;;;;;;;;5109090;28;20475;-61
2023/05/28 09:55:43;;;;;;;8.07;3.27;;;;;;;;;;5105081;28;20486;-62
2023/05/28 09:58:12;;;;;;;5.00;3.20;;;;;;;;;;5104069;28;20464;-62
2023/05/28 10:00:42;;;;;;;6.20;2.80;;;;;;;;;;5108090;28;20931;-61
2023/05/28 10:03:13;;;;;;;5.30;2.57;;;;;;;;;;5102087;28;20451;-61
2023/05/28 10:05:44;;;;;;;4.90;3.00;;;;;;;;;;5104422;28;20562;-61
2023/05/28 10:08:12;;;;;;;5.67;3.27;;;;;;;;;;5092554;28;20595;-61
2023/05/28 10:10:40;;;;;;;7.60;3.63;;;;;;;;;;5103078;28;20447;-62
2023/05/28 10:13:07;;;;;;;5.40;3.00;;;;;;;;;;5103483;28;20465;-62
2023/05/28 10:15:35;;;;;;;3.60;2.90;;;;;;;;;;5104198;28;20466;-63
2023/05/28 10:18:02;;;;;;;4.63;2.90;;;;;;;;;;5103304;28;20527;-62
2023/05/28 10:20:28;;;;;;;6.07;3.10;;;;;;;;;;5106630;28;20458;-62
2023/05/28 10:22:55;;;;;;;5.00;2.93;;;;;;;;;;5103573;28;20967;-62
2023/05/28 10:25:22;;;;;;;6.93;2.90;;;;;;;;;;5111474;28;20704;-62
2023/05/28 10:27:49;;;;;;;6.40;2.80;;;;;;;;;;5104833;28;20454;-61
2023/05/28 10:30:30;;;;;;;4.47;2.67;;;;;;;;;;5103963;28;20967;-62
2023/05/28 10:32:59;;;;;;;6.53;3.30;;;;;;;;;;5108475;28;20574;-61
2023/05/28 10:35:25;;;;;;;5.90;3.40;;;;;;;;;;5102187;28;20453;-61
2023/05/28 10:38:02;;;;;;;4.37;3.07;;;;;;;;;;5106016;28;20529;-61
2023/05/28 10:40:29;;;;;;;4.93;2.70;;;;;;;;;;5103423;28;20447;-61
2023/05/28 10:42:55;;;;;;;5.97;3.17;;;;;;;;;;5103637;28;20446;-61
2023/05/28 10:45:34;;;;;;;6.17;3.13;;;;;;;;;;5102754;28;20458;-61
2023/05/28 10:48:02;;;;;;;6.73;3.53;;;;;;;;;;5103614;28;20553;-61
2023/05/28 10:50:29;;;;;;;5.40;3.57;;;;;;;;;;5102131;28;20458;-61
2023/05/28 10:53:05;;;;;;;4.67;3.10;;;;;;;;;;5102764;28;20506;-62
2023/05/28 10:55:47;;;;;;;6.27;2.93;;;;;;;;;;5101044;28;20560;-61
2023/05/28 10:58:13;;;;;;;5.33;2.90;;;;;;;;;;5104850;28;20490;-62
2023/05/28 11:00:41;;;;;;;4.60;2.73;;;;;;;;;;5107490;28;20542;-61
2023/05/28 11:03:09;;;;;;;5.43;2.77;;;;;;;;;;5101269;28;20447;-62
2023/05/28 11:05:36;;;;;;;5.30;2.73;;;;;;;;;;5102180;28;20459;-61
2023/05/28 11:08:02;;;;;;;3.80;2.47;;;;;;;;;;5107937;28;20550;-61
2023/05/28 11:10:29;;;;;;;5.97;2.80;;;;;;;;;;5102726;28;20454;-60
2023/05/28 11:12:55;;;;;;;6.83;2.47;;;;;;;;;;5101292;28;20475;-61
2023/05/28 11:15:22;;;;;;;4.13;2.83;;;;;;;;;;5101336;28;20509;-61
2023/05/28 11:17:49;;;;;;;5.13;3.20;;;;;;;;;;5101592;28;21014;-61
2023/05/28 11:20:18;;;;;;;5.17;2.90;;;;;;;;;;5104900;28;20449;-62
2023/05/28 11:22:44;;;;;;;6.13;2.90;;;;;;;;;;5105750;28;20489;-61
2023/05/28 11:25:12;;;;;;;4.47;2.77;;;;;;;;;;5104327;28;20454;-61
2023/05/28 11:27:40;;;;;;;5.30;3.17;;;;;;;;;;5102304;28;20513;-62
2023/05/28 11:30:08;;;;;;;5.50;3.37;;;;;;;;;;5101563;28;20451;-61
2023/05/28 11:32:35;;;;;;;7.63;4.30;;;;;;;;;;5105384;28;20509;-61
2023/05/28 11:35:01;;;;;;;4.17;2.63;;;;;;;;;;5100282;28;20493;-61
2023/05/28 11:37:42;;;;;;;6.33;3.70;;;;;;;;;;5104988;28;20534;-61
2023/05/28 11:40:10;;;;;;;6.70;3.10;;;;;;;;;;5110384;28;20450;-61
2023/05/28 11:42:37;;;;;;;5.17;2.73;;;;;;;;;;5101484;28;20504;-61
2023/05/28 11:45:04;;;;;;;3.77;2.47;;;;;;;;;;5111248;28;20577;-60
2023/05/28 11:47:33;;;;;;;5.50;3.20;;;;;;;;;;5107144;28;20979;-61
2023/05/28 11:49:59;;;;;;;4.77;2.73;;;;;;;;;;5099995;28;20465;-61
2023/05/28 11:52:26;;;;;;;9.20;3.20;;;;;;;;;;5103170;28;20574;-60
2023/05/28 11:54:55;;;;;;;7.40;3.53;;;;;;;;;;5105276;28;20509;-61
2023/05/28 11:57:23;;;;;;;5.30;3.13;;;;;;;;;;5108234;28;20459;-60
2023/05/28 11:59:55;;;;;;;6.47;3.00;;;;;;;;;;5100969;28;20451;-61
2023/05/28 12:02:23;;;;;;;6.23;3.23;;;;;;;;;;5104125;28;20462;-61
2023/05/28 12:04:59;;;;;;;7.13;3.90;;;;;;;;;;5100026;28;20454;-60
2023/05/28 12:07:29;;;;;;;3.87;2.87;;;;;;;;;;5100907;28;20495;-60
2023/05/28 12:10:09;;;;;;;8.53;3.13;;;;;;;;;;5100372;28;20470;-61
2023/05/28 12:12:40;;;;;;;5.80;3.40;;;;;;;;;;5100272;28;20510;-61
2023/05/28 12:15:06;;;;;;;5.33;3.10;;;;;;;;;;5104051;28;20493;-61
2023/05/28 12:17:39;;;;;;;6.20;3.10;;;;;;;;;;5103761;28;20450;-61
2023/05/28 12:20:07;;;;;;;6.73;3.10;;;;;;;;;;5105218;28;20537;-62
2023/05/28 12:22:34;;;;;;;5.77;3.13;;;;;;;;;;5104751;28;20479;-61
2023/05/28 12:25:03;;;;;;;6.40;3.50;;;;;;;;;;5102704;28;20478;-60
2023/05/28 12:27:31;;;;;;;8.70;3.80;;;;;;;;;;5099556;28;20462;-61
2023/05/28 12:29:58;;;;;;;7.33;3.27;;;;;;;;;;5100205;28;20481;-62
2023/05/28 12:32:25;;;;;;;5.67;3.57;;;;;;;;;;5106747;28;20499;-61
2023/05/28 12:34:53;;;;;;;4.67;3.37;;;;;;;;;;5113001;28;20438;-62
2023/05/28 12:37:20;;;;;;;5.90;3.77;;;;;;;;;;5101728;28;20458;-61
2023/05/28 12:39:46;;;;;;;5.80;3.13;;;;;;;;;;5109823;28;20454;-62
2023/05/28 12:42:13;;;;;;;5.13;2.80;;;;;;;;;;5108220;28;20466;-61
2023/05/28 12:44:41;;;;;;;4.17;3.00;;;;;;;;;;5099706;28;20482;-60
2023/05/28 12:47:07;;;;;;;4.67;3.30;;;;;;;;;;5098919;28;20565;-62
2023/05/28 12:49:33;;;;;;;5.70;3.60;;;;;;;;;;5111111;28;20454;-62
2023/05/28 12:52:00;;;;;;;3.90;3.03;;;;;;;;;;5100634;28;20519;-61
2023/05/28 12:54:26;;;;;;;5.93;3.10;;;;;;;;;;5105260;28;20546;-62
2023/05/28 12:56:53;;;;;;;6.63;4.10;;;;;;;;;;5102371;28;20520;-61
2023/05/28 12:59:23;;;;;;;4.80;3.70;;;;;;;;;;5100829;28;20476;-61
2023/05/28 13:01:51;;;;;;;5.90;3.27;;;;;;;;;;5101864;28;20525;-60
2023/05/28 13:04:18;;;;;;;7.63;3.50;;;;;;;;;;5101649;28;20879;-62
2023/05/28 13:06:44;;;;;;;8.93;3.50;;;;;;;;;;5105239;28;20482;-62
2023/05/28 13:09:11;;;;;;;6.73;3.50;;;;;;;;;;5101261;28;21019;-62
2023/05/28 13:11:38;;;;;;;6.77;3.40;;;;;;;;;;5105312;28;20462;-62
2023/05/28 13:14:04;;;;;;;6.87;3.30;;;;;;;;;;5103305;28;20489;-62
2023/05/28 13:16:31;;;;;;;6.30;3.40;;;;;;;;;;5105755;28;20553;-61
2023/05/28 13:19:01;;;;;;;6.80;3.67;;;;;;;;;;5101789;28;20479;-61
2023/05/28 13:21:28;;;;;;;7.07;3.40;;;;;;;;;;5104039;28;20944;-62
2023/05/28 13:23:54;;;;;;;4.67;3.10;;;;;;;;;;5099621;28;20446;-61
2023/05/28 13:26:22;;;;;;;5.10;3.77;;;;;;;;;;5101306;28;20551;-61
2023/05/28 13:28:48;;;;;;;5.10;3.37;;;;;;;;;;5107521;28;20593;-61
2023/05/28 13:31:15;;;;;;;4.67;3.30;;;;;;;;;;5107155;28;20522;-61
2023/05/28 13:33:41;;;;;;;8.63;3.37;;;;;;;;;;5102979;28;20510;-60
2023/05/28 13:36:10;;;;;;;5.93;3.23;;;;;;;;;;5105011;28;20560;-61
2023/05/28 13:38:36;;;;;;;5.40;3.40;;;;;;;;;;5105505;28;20458;-61
2023/05/28 13:41:03;;;;;;;7.60;3.43;;;;;;;;;;5101582;28;20526;-62
2023/05/28 13:43:30;;;;;;;5.87;3.60;;;;;;;;;;5104719;28;20952;-62
2023/05/28 13:45:56;;;;;;;6.87;3.30;;;;;;;;;;5101807;28;20482;-61
2023/05/28 13:48:23;;;;;;;3.43;3.03;;;;;;;;;;5099670;28;20861;-61
2023/05/28 13:50:49;;;;;;;6.40;3.73;;;;;;;;;;5100220;28;20684;-62
2023/05/28 13:53:17;;;;;;;4.87;3.07;;;;;;;;;;5100826;28;20509;-62
2023/05/28 13:55:43;;;;;;;7.30;3.80;;;;;;;;;;5097728;28;20510;-61
2023/05/28 13:58:10;;;;;;;4.27;3.20;;;;;;;;;;5099386;28;20542;-61
2023/05/28 14:00:38;;;;;;;6.20;3.57;;;;;;;;;;5110451;28;21053;-62
2023/05/28 14:03:04;;;;;;;6.20;3.27;;;;;;;;;;5110126;28;20455;-62
2023/05/28 14:05:30;;;;;;;4.30;3.20;;;;;;;;;;5116056;28;20532;-62
2023/05/28 14:07:57;;;;;;;8.63;3.60;;;;;;;;;;5106072;28;20463;-61
2023/05/28 14:10:24;;;;;;;4.17;3.63;;;;;;;;;;5112761;28;20933;-60
2023/05/28 14:12:51;;;;;;;7.03;3.73;;;;;;;;;;5102888;28;20513;-61
2023/05/28 14:15:18;;;;;;;6.50;3.60;;;;;;;;;;5102632;28;20514;-62
2023/05/28 14:17:44;;;;;;;6.30;3.93;;;;;;;;;;5103452;28;20534;-62
2023/05/28 14:20:11;;;;;;;3.67;3.27;;;;;;;;;;5108070;28;20490;-61
2023/05/28 14:22:38;;;;;;;4.80;3.40;;;;;;;;;;5106116;28;20451;-62
2023/05/28 14:25:04;;;;;;;6.37;3.60;;;;;;;;;;5106771;28;20525;-62
2023/05/28 14:27:32;;;;;;;7.83;3.73;;;;;;;;;;5103097;28;20475;-62
2023/05/28 14:29:58;;;;;;;5.40;3.43;;;;;;;;;;5103405;28;20533;-62
2023/05/28 14:32:25;;;;;;;6.47;3.40;;;;;;;;;;5105740;28;20562;-62
2023/05/28 14:34:51;;;;;;;5.50;4.10;;;;;;;;;;5107575;28;20520;-62
2023/05/28 14:37:18;;;;;;;9.30;3.80;;;;;;;;;;5104400;28;20546;-61
2023/05/28 14:39:45;;;;;;;9.17;4.10;;;;;;;;;;5101618;28;20481;-62